createdAt,value
2019-02-21T00:01:06.078Z,22.55
2019-02-21T00:03:35.664Z,21.52
2019-02-21T00:06:06.287Z,23.52
2019-02-21T00:08:35.937Z,23.57
2019-02-21T00:11:05.356Z,23.18
2019-02-21T00:13:35.139Z,22.52
2019-02-21T00:16:04.560Z,22.48
2019-02-21T00:18:35.324Z,23.00
2019-02-21T00:21:04.732Z,21.93
2019-02-21T00:23:34.401Z,22.77
2019-02-21T00:26:04.446Z,23.15
2019-02-21T00:28:34.510Z,22.85
2019-02-21T00:31:04.355Z,22.87
2019-02-21T00:33:33.836Z,22.35
2019-02-21T00:36:03.589Z,23.40
2019-02-21T00:38:33.048Z,22.07
2019-02-21T00:41:02.548Z,22.17
2019-02-21T00:43:31.949Z,21.65
2019-02-21T00:46:01.412Z,21.80
2019-02-21T00:48:30.888Z,21.45
2019-02-21T00:51:00.312Z,21.42
2019-02-21T00:53:29.789Z,21.15
2019-02-21T00:56:00.290Z,20.77
2019-02-21T00:58:30.025Z,20.40
2019-02-21T01:00:59.626Z,20.70
2019-02-21T01:03:29.086Z,21.15
2019-02-21T01:05:59.605Z,20.70
2019-02-21T01:08:29.073Z,21.05
2019-02-21T01:10:58.547Z,21.48
2019-02-21T01:13:28.520Z,20.80
2019-02-21T01:15:57.988Z,19.90
2019-02-21T01:18:27.491Z,20.88
2019-02-21T01:20:56.970Z,20.85
2019-02-21T01:23:27.711Z,20.95
2019-02-21T01:25:57.185Z,20.72
2019-02-21T01:28:26.616Z,20.23
2019-02-21T01:30:57.197Z,21.20
2019-02-21T01:33:26.772Z,20.70
2019-02-21T01:35:56.250Z,21.27
2019-02-21T01:38:25.685Z,19.90
2019-02-21T01:40:55.232Z,20.50
2019-02-21T01:43:24.665Z,19.10
2019-02-21T01:45:54.124Z,20.12
2019-02-21T01:48:23.530Z,20.75
2019-02-21T01:50:53.027Z,20.75
2019-02-21T01:53:22.475Z,20.25
2019-02-21T01:55:51.894Z,20.05
2019-02-21T01:58:21.346Z,20.80
2019-02-21T02:00:50.778Z,21.05
2019-02-21T02:03:20.180Z,20.95
2019-02-21T02:05:49.754Z,20.80
2019-02-21T02:08:19.228Z,20.65
2019-02-21T02:10:48.693Z,21.20
2019-02-21T02:13:24.693Z,20.70
2019-02-21T02:15:49.274Z,20.68
2019-02-21T02:18:18.692Z,20.88
2019-02-21T02:20:48.164Z,20.17
2019-02-21T02:23:17.586Z,20.97
2019-02-21T02:25:47.054Z,20.43
2019-02-21T02:28:16.544Z,20.70
2019-02-21T02:30:45.973Z,20.48
2019-02-21T02:33:15.392Z,21.00
2019-02-21T02:35:44.863Z,21.30
2019-02-21T02:38:14.265Z,20.33
2019-02-21T02:40:43.770Z,20.40
2019-02-21T02:43:13.176Z,20.25
2019-02-21T02:45:42.896Z,19.80
2019-02-21T02:48:12.315Z,19.43
2019-02-21T02:50:41.914Z,19.75
2019-02-21T02:53:11.442Z,20.17
2019-02-21T02:55:40.904Z,20.45
2019-02-21T02:58:10.338Z,19.40
2019-02-21T03:00:39.813Z,19.82
2019-02-21T03:03:09.235Z,19.95
2019-02-21T03:05:39.678Z,19.37
2019-02-21T03:08:09.161Z,20.36
2019-02-21T03:10:38.621Z,19.95
2019-02-21T03:13:08.050Z,19.52
2019-02-21T03:15:37.506Z,20.37
2019-02-21T03:18:06.920Z,19.20
2019-02-21T03:20:36.379Z,19.17
2019-02-21T03:23:05.790Z,20.48
2019-02-21T03:25:35.258Z,19.57
2019-02-21T03:28:04.952Z,20.10
2019-02-21T03:30:34.381Z,19.37
2019-02-21T03:33:04.565Z,19.70
2019-02-21T03:35:34.034Z,20.12
2019-02-21T03:38:04.415Z,19.45
2019-02-21T03:40:33.855Z,20.48
2019-02-21T03:43:04.414Z,20.36
2019-02-21T03:45:33.820Z,20.12
2019-02-21T03:48:03.408Z,20.00
2019-02-21T03:50:32.850Z,20.88
2019-02-21T03:53:03.249Z,20.72
2019-02-21T03:55:32.656Z,20.68
2019-02-21T03:58:02.201Z,19.87
2019-02-21T04:00:31.628Z,20.17
2019-02-21T04:03:01.150Z,19.80
2019-02-21T04:05:30.613Z,20.05
2019-02-21T04:08:00.066Z,19.98
2019-02-21T04:10:29.490Z,19.40
2019-02-21T04:12:59.018Z,20.12
2019-02-21T04:15:28.612Z,19.48
2019-02-21T04:17:58.083Z,20.75
2019-02-21T04:20:27.521Z,20.72
2019-02-21T04:22:57.000Z,19.52
2019-02-21T04:25:26.464Z,19.62
2019-02-21T04:27:55.889Z,20.05
2019-02-21T04:30:25.341Z,20.70
2019-02-21T04:32:54.783Z,19.23
2019-02-21T04:35:25.309Z,20.30
2019-02-21T04:37:54.776Z,20.08
2019-02-21T04:40:24.321Z,20.17
2019-02-21T04:42:53.740Z,20.52
2019-02-21T04:45:23.160Z,19.95
2019-02-21T04:47:52.641Z,20.48
2019-02-21T04:50:22.056Z,21.55
2019-02-21T04:52:51.522Z,21.57
2019-02-21T04:55:20.954Z,20.72
2019-02-21T04:57:50.426Z,22.10
2019-02-21T05:00:19.900Z,21.57
2019-02-21T05:02:49.364Z,20.05
2019-02-21T05:05:18.793Z,21.00
2019-02-21T05:07:48.274Z,20.60
2019-02-21T05:10:17.691Z,20.35
2019-02-21T05:12:47.228Z,21.17
2019-02-21T05:15:16.705Z,21.60
2019-02-21T05:17:46.249Z,22.42
2019-02-21T05:20:15.640Z,22.30
2019-02-21T05:22:45.111Z,22.00
2019-02-21T05:25:14.528Z,22.10
2019-02-21T05:27:45.654Z,22.15
2019-02-21T05:30:16.793Z,22.90
2019-02-21T05:32:47.875Z,21.93
2019-02-21T05:35:24.529Z,22.67
2019-02-21T05:37:58.336Z,21.90
2019-02-21T05:40:46.757Z,22.37
2019-02-21T05:43:20.549Z,22.32
2019-02-21T05:45:51.706Z,23.15
2019-02-21T05:48:25.687Z,22.77
2019-02-21T05:51:02.663Z,22.87
2019-02-21T05:53:36.125Z,21.95
2019-02-21T05:56:07.229Z,21.33
2019-02-21T05:58:46.999Z,22.35
2019-02-21T06:01:27.081Z,22.73
2019-02-21T06:04:12.921Z,23.35
2019-02-21T06:06:46.899Z,21.93
2019-02-21T06:09:18.007Z,22.20
2019-02-21T06:12:05.435Z,22.00
2019-02-21T06:14:51.802Z,22.02
2019-02-21T06:17:22.882Z,22.90
2019-02-21T06:20:02.991Z,23.03
2019-02-21T06:22:36.749Z,23.20
2019-02-21T06:25:07.999Z,22.62
2019-02-21T06:27:39.093Z,22.17
2019-02-21T06:30:10.866Z,22.58
2019-02-21T06:32:40.936Z,22.55
2019-02-21T06:35:11.240Z,22.62
2019-02-21T06:37:40.702Z,23.15
2019-02-21T06:40:10.221Z,23.05
2019-02-21T06:42:39.695Z,22.60
2019-02-21T06:45:09.176Z,23.14
2019-02-21T06:47:38.642Z,22.80
2019-02-21T06:50:08.138Z,22.35
2019-02-21T06:52:37.587Z,22.13
2019-02-21T06:55:07.250Z,22.58
2019-02-21T06:57:37.081Z,23.73
2019-02-21T07:00:07.045Z,23.27
2019-02-21T07:02:36.567Z,22.30
2019-02-21T07:05:05.989Z,22.77
2019-02-21T07:07:35.416Z,23.18
2019-02-21T07:10:07.073Z,22.25
2019-02-21T07:12:36.523Z,21.37
2019-02-21T07:15:10.106Z,26.23
2019-02-21T07:17:48.751Z,23.67
2019-02-21T07:20:12.926Z,22.98
2019-02-21T07:22:42.128Z,24.12
2019-02-21T07:25:13.314Z,23.27
2019-02-21T07:27:43.713Z,22.07
2019-02-21T07:30:19.770Z,21.45
2019-02-21T07:32:44.559Z,22.67
2019-02-21T07:35:14.031Z,22.22
2019-02-21T07:37:43.527Z,21.90
2019-02-21T07:40:19.840Z,22.17
2019-02-21T07:42:44.178Z,22.13
2019-02-21T07:45:13.790Z,22.98
2019-02-21T07:47:43.387Z,22.27
2019-02-21T07:50:13.722Z,21.07
2019-02-21T07:52:43.254Z,21.60
2019-02-21T07:55:12.708Z,22.43
2019-02-21T07:57:42.205Z,22.75
2019-02-21T08:00:12.894Z,22.25
2019-02-21T08:02:42.368Z,22.57
2019-02-21T08:05:11.856Z,21.75
2019-02-21T08:07:41.318Z,22.13
2019-02-21T08:10:12.311Z,22.40
2019-02-21T08:12:41.725Z,21.52
2019-02-21T08:15:12.941Z,21.85
2019-02-21T08:17:42.354Z,22.40
2019-02-21T08:20:12.651Z,20.80
2019-02-21T08:22:42.120Z,21.75
2019-02-21T08:25:11.695Z,20.30
2019-02-21T08:27:42.617Z,21.68
2019-02-21T08:30:15.418Z,20.20
2019-02-21T08:32:46.591Z,20.35
2019-02-21T08:35:16.014Z,21.10
2019-02-21T08:37:45.473Z,21.45
2019-02-21T08:40:14.904Z,19.75
2019-02-21T08:42:44.379Z,19.90
2019-02-21T08:45:13.794Z,19.65
2019-02-21T08:47:43.265Z,18.80
2019-02-21T08:50:12.766Z,18.90
2019-02-21T08:52:42.189Z,18.87
2019-02-21T08:55:11.780Z,19.50
2019-02-21T08:57:41.249Z,19.45
2019-02-21T09:00:13.805Z,19.32
2019-02-21T09:02:43.476Z,19.48
2019-02-21T09:05:14.018Z,18.90
2019-02-21T09:07:46.274Z,18.85
2019-02-21T09:10:15.153Z,19.37
2019-02-21T09:12:48.244Z,18.50
2019-02-21T09:15:17.333Z,18.85
2019-02-21T09:17:46.768Z,17.25
2019-02-21T09:20:16.309Z,17.65
2019-02-21T09:22:45.732Z,18.42
2019-02-21T09:25:16.251Z,19.05
2019-02-21T09:27:45.683Z,18.85
2019-02-21T09:30:17.684Z,17.62
2019-02-21T09:32:47.134Z,18.02
2019-02-21T09:35:16.614Z,18.48
2019-02-21T09:37:46.119Z,17.23
2019-02-21T09:40:15.712Z,17.55
2019-02-21T09:42:46.392Z,18.05
2019-02-21T09:45:17.843Z,17.27
2019-02-21T09:47:47.412Z,16.52
2019-02-21T09:50:16.951Z,16.45
2019-02-21T09:52:46.398Z,16.70
2019-02-21T09:55:17.602Z,16.55
2019-02-21T09:57:47.024Z,16.55
2019-02-21T10:00:19.074Z,16.95
2019-02-21T10:02:48.582Z,15.78
2019-02-21T10:05:18.052Z,17.02
2019-02-21T10:07:47.474Z,16.32
2019-02-21T10:10:26.899Z,16.65
2019-02-21T10:12:55.541Z,16.15
2019-02-21T10:15:24.983Z,17.17
2019-02-21T10:17:54.697Z,16.70
2019-02-21T10:20:24.157Z,15.85
2019-02-21T10:22:57.067Z,16.12
2019-02-21T10:25:30.740Z,16.10
2019-02-21T10:28:00.581Z,16.20
2019-02-21T10:30:30.064Z,16.55
2019-02-21T10:32:59.524Z,16.65
2019-02-21T10:35:28.991Z,15.85
2019-02-21T10:37:58.422Z,15.05
2019-02-21T10:40:27.897Z,15.43
2019-02-21T10:42:57.322Z,14.83
2019-02-21T10:45:26.802Z,15.53
2019-02-21T10:47:56.269Z,15.40
2019-02-21T10:50:25.707Z,15.32
2019-02-21T10:52:55.215Z,15.05
2019-02-21T10:55:24.795Z,15.13
2019-02-21T10:57:54.360Z,14.65
2019-02-21T11:00:30.587Z,13.95
2019-02-21T11:03:00.070Z,16.07
2019-02-21T11:05:29.501Z,14.40
2019-02-21T11:07:59.336Z,14.25
2019-02-21T11:10:29.910Z,14.70
2019-02-21T11:12:59.373Z,15.13
2019-02-21T11:15:28.816Z,14.45
2019-02-21T11:17:58.354Z,13.67
2019-02-21T11:20:27.893Z,13.45
2019-02-21T11:22:57.358Z,14.55
2019-02-21T11:25:26.846Z,14.65
2019-02-21T11:27:56.272Z,14.25
2019-02-21T11:30:25.747Z,15.18
2019-02-21T11:32:55.167Z,15.03
2019-02-21T11:35:24.734Z,15.23
2019-02-21T11:37:54.214Z,15.03
2019-02-21T11:40:23.707Z,15.30
2019-02-21T11:42:53.201Z,14.75
2019-02-21T11:45:22.622Z,14.68
2019-02-21T11:47:52.104Z,14.93
2019-02-21T11:50:21.602Z,15.05
2019-02-21T11:52:51.072Z,14.75
2019-02-21T11:55:22.331Z,15.00
2019-02-21T11:57:51.805Z,15.32
2019-02-21T12:00:23.793Z,15.40
2019-02-21T12:02:54.392Z,16.27
2019-02-21T12:05:32.196Z,15.93
2019-02-21T12:07:55.554Z,16.20
2019-02-21T12:10:25.069Z,15.78
2019-02-21T12:12:54.547Z,16.10
2019-02-21T12:15:24.110Z,16.93
2019-02-21T12:17:53.812Z,16.37
2019-02-21T12:20:23.302Z,17.70
2019-02-21T12:22:52.776Z,18.12
2019-02-21T12:25:25.262Z,18.07
2019-02-21T12:27:54.711Z,18.95
2019-02-21T12:30:24.566Z,18.75
2019-02-21T12:32:54.078Z,18.37
2019-02-21T12:35:29.676Z,18.77
2019-02-21T12:37:54.806Z,19.30
2019-02-21T12:40:24.480Z,19.73
2019-02-21T12:42:53.999Z,19.12
2019-02-21T12:45:25.299Z,19.55
2019-02-21T12:47:54.860Z,19.12
2019-02-21T12:50:24.343Z,19.75
2019-02-21T12:52:53.871Z,19.42
2019-02-21T12:55:29.262Z,20.30
2019-02-21T12:57:54.498Z,19.05
2019-02-21T13:00:24.409Z,18.92
2019-02-21T13:02:53.871Z,19.82
2019-02-21T13:05:23.295Z,17.80
2019-02-21T13:07:52.720Z,17.80
2019-02-21T13:10:23.736Z,17.77
2019-02-21T13:12:53.194Z,16.20
2019-02-21T13:15:22.613Z,17.00
2019-02-21T13:17:52.484Z,16.93
2019-02-21T13:20:21.915Z,17.50
2019-02-21T13:22:51.389Z,18.00
2019-02-21T13:25:20.866Z,19.02
2019-02-21T13:27:50.286Z,18.35
2019-02-21T13:30:19.838Z,18.95
2019-02-21T13:32:49.297Z,18.45
2019-02-21T13:35:18.720Z,18.85
2019-02-21T13:37:48.188Z,17.87
2019-02-21T13:40:20.933Z,17.73
2019-02-21T13:42:49.168Z,18.32
2019-02-21T13:45:18.773Z,19.12
2019-02-21T13:47:48.455Z,18.62
2019-02-21T13:50:19.125Z,19.85
2019-02-21T13:52:48.717Z,18.80
2019-02-21T13:55:18.167Z,18.52
2019-02-21T13:57:47.682Z,18.82
2019-02-21T14:00:21.714Z,18.75
2019-02-21T14:02:51.249Z,19.82
2019-02-21T14:05:20.674Z,20.32
2019-02-21T14:07:50.221Z,19.12
2019-02-21T14:10:19.692Z,19.60
2019-02-21T14:12:49.723Z,19.05
2019-02-21T14:15:22.301Z,19.27
2019-02-21T14:17:51.809Z,19.07
2019-02-21T14:20:21.499Z,19.47
2019-02-21T14:22:51.266Z,18.62
2019-02-21T14:25:20.975Z,18.45
2019-02-21T14:27:50.509Z,18.48
2019-02-21T14:30:21.433Z,17.62
2019-02-21T14:32:51.000Z,17.20
2019-02-21T14:35:20.635Z,14.90
2019-02-21T14:37:50.113Z,15.00
2019-02-21T14:40:19.543Z,13.05
2019-02-21T14:42:49.347Z,13.32
2019-02-21T14:45:24.014Z,13.22
2019-02-21T14:47:53.557Z,12.93
2019-02-21T14:50:22.979Z,13.00
2019-02-21T14:52:52.612Z,13.53
2019-02-21T14:55:22.195Z,13.43
2019-02-21T14:57:51.699Z,13.93
2019-02-21T15:00:26.838Z,13.97
2019-02-21T15:02:57.922Z,14.30
2019-02-21T15:05:27.786Z,15.03
2019-02-21T15:07:57.560Z,15.98
2019-02-21T15:10:27.038Z,17.02
2019-02-21T15:12:56.480Z,17.12
2019-02-21T15:15:27.112Z,16.87
2019-02-21T15:18:07.016Z,16.85
2019-02-21T15:20:36.455Z,17.10
2019-02-21T15:22:59.062Z,18.27
2019-02-21T15:25:28.546Z,18.30
2019-02-21T15:27:58.087Z,18.40
2019-02-21T15:30:28.626Z,18.17
2019-02-21T15:32:58.105Z,18.92
2019-02-21T15:35:27.653Z,17.75
2019-02-21T15:37:57.098Z,17.10
2019-02-21T15:40:26.609Z,18.10
2019-02-21T15:42:56.408Z,17.87
2019-02-21T15:45:31.924Z,18.70
2019-02-21T15:48:01.671Z,19.12
2019-02-21T15:50:31.235Z,18.02
2019-02-21T15:53:00.662Z,18.55
2019-02-21T15:55:32.170Z,20.15
2019-02-21T15:58:04.359Z,19.80
2019-02-21T16:00:32.509Z,20.30
2019-02-21T16:03:01.933Z,20.40
2019-02-21T16:05:32.736Z,20.45
2019-02-21T16:08:02.491Z,21.37
2019-02-21T16:10:32.124Z,21.37
2019-02-21T16:13:04.304Z,22.20
2019-02-21T16:15:32.889Z,21.52
2019-02-21T16:18:02.296Z,21.65
2019-02-21T16:20:31.898Z,21.25
2019-02-21T16:23:01.412Z,22.40
2019-02-21T16:25:34.433Z,21.85
2019-02-21T16:28:04.387Z,22.15
2019-02-21T16:30:33.924Z,21.62
2019-02-21T16:33:04.420Z,21.10
2019-02-21T16:35:33.945Z,26.02
2019-02-21T16:38:05.099Z,23.45
2019-02-21T16:40:34.812Z,23.20
2019-02-21T16:43:04.331Z,23.02
2019-02-21T16:45:42.863Z,23.95
2019-02-21T16:48:05.556Z,23.73
2019-02-21T16:50:36.053Z,23.90
2019-02-21T16:53:05.748Z,23.47
2019-02-21T16:55:35.244Z,23.40
2019-02-21T16:58:04.676Z,23.42
2019-02-21T17:00:42.461Z,24.07
2019-02-21T17:03:05.862Z,23.27
2019-02-21T17:05:35.743Z,24.82
2019-02-21T17:08:06.286Z,24.85
2019-02-21T17:10:35.919Z,23.98
2019-02-21T17:13:05.327Z,23.27
2019-02-21T17:15:34.898Z,24.10
2019-02-21T17:18:04.407Z,24.80
2019-02-21T17:20:33.977Z,24.75
2019-02-21T17:23:04.411Z,25.27
2019-02-21T17:25:34.036Z,25.65
2019-02-21T17:28:04.340Z,25.30
2019-02-21T17:30:34.050Z,24.57
2019-02-21T17:33:04.363Z,25.15
2019-02-21T17:35:33.925Z,23.60
2019-02-21T17:38:04.668Z,23.62
2019-02-21T17:40:34.484Z,24.72
2019-02-21T17:43:04.828Z,23.77
2019-02-21T17:45:34.443Z,25.25
2019-02-21T17:48:04.602Z,24.63
2019-02-21T17:50:34.168Z,25.88
2019-02-21T17:53:04.626Z,27.82
2019-02-21T17:55:34.386Z,27.87
2019-02-21T17:58:04.394Z,28.32
2019-02-21T18:00:35.692Z,28.27
2019-02-21T18:03:05.234Z,31.10
2019-02-21T18:05:34.728Z,30.40
2019-02-21T18:08:05.434Z,30.57
2019-02-21T18:10:35.044Z,33.83
2019-02-21T18:13:04.856Z,32.63
2019-02-21T18:15:35.832Z,32.80
2019-02-21T18:18:05.719Z,32.10
2019-02-21T18:20:35.260Z,33.45
2019-02-21T18:23:04.967Z,33.02
2019-02-21T18:25:40.771Z,33.92
2019-02-21T18:28:11.274Z,35.03
2019-02-21T18:30:40.843Z,33.78
2019-02-21T18:33:10.283Z,34.75
2019-02-21T18:35:39.813Z,34.00
2019-02-21T18:38:09.251Z,33.52
2019-02-21T18:40:38.954Z,35.25
2019-02-21T18:43:08.684Z,36.80
2019-02-21T18:45:38.276Z,35.80
2019-02-21T18:48:07.784Z,34.53
2019-02-21T18:50:38.589Z,37.10
2019-02-21T18:53:08.165Z,35.03
2019-02-21T18:55:37.802Z,36.40
2019-02-21T18:58:07.648Z,35.68
2019-02-21T19:00:37.316Z,35.78
2019-02-21T19:03:06.738Z,36.70
2019-02-21T19:05:36.605Z,36.65
2019-02-21T19:08:06.094Z,38.08
2019-02-21T19:10:35.719Z,38.25
2019-02-21T19:13:07.662Z,38.58
2019-02-21T19:15:36.365Z,38.55
2019-02-21T19:18:06.336Z,40.05
2019-02-21T19:20:36.529Z,38.13
2019-02-21T19:23:06.925Z,41.40
2019-02-21T19:25:36.503Z,39.03
2019-02-21T19:28:05.991Z,41.88
2019-02-21T19:30:56.785Z,39.67
2019-02-21T19:33:26.982Z,41.73
2019-02-21T19:35:56.540Z,44.15
2019-02-21T19:38:31.831Z,40.88
2019-02-21T19:41:01.470Z,43.92
2019-02-21T19:43:30.916Z,45.28
2019-02-21T19:46:00.625Z,45.38
2019-02-21T19:48:30.450Z,48.15
2019-02-21T19:51:00.005Z,46.88
2019-02-21T19:53:29.791Z,46.37
2019-02-21T19:55:59.361Z,44.27
2019-02-21T19:58:28.818Z,45.15
2019-02-21T20:00:58.485Z,49.75
2019-02-21T20:03:28.127Z,48.70
2019-02-21T20:05:57.990Z,48.42
2019-02-21T20:08:27.547Z,46.48
2019-02-21T20:10:57.359Z,47.78
2019-02-21T20:13:26.913Z,47.10
2019-02-21T20:15:56.477Z,46.40
2019-02-21T20:18:26.060Z,45.33
2019-02-21T20:20:55.794Z,45.50
2019-02-21T20:23:25.339Z,46.37
2019-02-21T20:25:55.970Z,44.38
2019-02-21T20:28:25.437Z,43.95
2019-02-21T20:30:55.049Z,43.15
2019-02-21T20:33:25.153Z,46.02
2019-02-21T20:35:54.732Z,43.08
2019-02-21T20:38:31.786Z,42.65
2019-02-21T20:40:55.458Z,42.20
2019-02-21T20:43:25.128Z,42.67
2019-02-21T20:45:54.675Z,40.78
2019-02-21T20:48:24.108Z,41.58
2019-02-21T20:50:56.968Z,40.08
2019-02-21T20:53:24.789Z,41.28
2019-02-21T20:55:54.350Z,40.38
2019-02-21T20:58:23.780Z,44.33
2019-02-21T21:00:53.390Z,39.33
2019-02-21T21:03:24.127Z,43.08
2019-02-21T21:05:54.016Z,44.48
2019-02-21T21:08:23.734Z,43.87
2019-02-21T21:10:53.678Z,42.73
2019-02-21T21:13:23.210Z,41.55
2019-02-21T21:15:52.663Z,45.28
2019-02-21T21:18:22.168Z,44.70
2019-02-21T21:20:51.587Z,43.58
2019-02-21T21:23:21.226Z,44.05
2019-02-21T21:25:50.658Z,42.13
2019-02-21T21:28:20.164Z,43.00
2019-02-21T21:30:49.668Z,42.20
2019-02-21T21:33:19.201Z,41.73
2019-02-21T21:35:48.708Z,41.28
2019-02-21T21:38:24.263Z,42.30
2019-02-21T21:40:50.287Z,43.55
2019-02-21T21:43:19.781Z,42.95
2019-02-21T21:45:49.207Z,41.90
2019-02-21T21:48:18.755Z,42.67
2019-02-21T21:50:48.494Z,40.15
2019-02-21T21:53:18.326Z,44.20
2019-02-21T21:55:47.757Z,42.85
2019-02-21T21:58:17.286Z,41.85
2019-02-21T22:00:46.769Z,42.35
2019-02-21T22:03:17.254Z,41.47
2019-02-21T22:05:46.795Z,42.60
2019-02-21T22:08:16.203Z,40.75
2019-02-21T22:10:45.665Z,42.48
2019-02-21T22:13:15.129Z,44.33
2019-02-21T22:15:44.610Z,40.98
2019-02-21T22:18:14.038Z,40.83
2019-02-21T22:20:43.515Z,38.13
2019-02-21T22:23:12.917Z,40.17
2019-02-21T22:25:42.405Z,40.17
2019-02-21T22:28:11.862Z,40.52
2019-02-21T22:30:41.698Z,37.50
2019-02-21T22:33:11.167Z,37.73
2019-02-21T22:35:40.698Z,39.10
2019-02-21T22:38:10.156Z,40.33
2019-02-21T22:40:39.582Z,39.95
2019-02-21T22:43:10.053Z,38.05
2019-02-21T22:45:39.517Z,37.15
2019-02-21T22:48:09.045Z,40.10
2019-02-21T22:50:38.522Z,37.88
2019-02-21T22:53:07.993Z,37.00
2019-02-21T22:55:37.465Z,36.68
2019-02-21T22:58:06.931Z,35.60
2019-02-21T23:00:58.862Z,35.95
2019-02-21T23:03:34.709Z,36.25
2019-02-21T23:06:24.395Z,38.33
2019-02-21T23:08:54.699Z,35.58
2019-02-21T23:11:24.248Z,37.55
2019-02-21T23:13:54.726Z,37.88
2019-02-21T23:16:24.558Z,37.48
2019-02-21T23:18:54.051Z,36.42
2019-02-21T23:21:23.596Z,37.00
2019-02-21T23:23:53.171Z,34.53
2019-02-21T23:26:22.620Z,36.15
2019-02-21T23:28:52.123Z,35.43
2019-02-21T23:31:21.584Z,34.48
2019-02-21T23:33:55.309Z,35.25
2019-02-21T23:36:24.761Z,34.65
2019-02-21T23:38:54.190Z,35.83
2019-02-21T23:41:23.673Z,34.08
2019-02-21T23:43:53.095Z,34.00
2019-02-21T23:46:22.932Z,34.90
2019-02-21T23:48:52.454Z,34.48
2019-02-21T23:51:21.881Z,32.73
2019-02-21T23:53:51.358Z,33.65
2019-02-21T23:56:20.769Z,32.78
2019-02-21T23:58:50.244Z,32.25
